Terminal Aerodrome Forecast
Issued by NWS

Current Version | Previous Version | Graphics & Text | Print | Product List | Glossary On
Versions: 1 2 3 4 5 6 7 8 9 10 11 12 13 14 15 16 17 18 19 20 21 22 23 24 25 26 27 28 29 30 31 32 33 34 35 36 37 38
741
FTUS41 KRNK 250520
TAFLWB
TAF
KLWB 250520Z 2506/2606 VRB03KT P6SM SCT120
     FM250700 VRB03KT 5SM BR BKN120
     FM250800 VRB03KT 3/4SM BR SCT008
      TEMPO 2508/2512 1/4SM FG OVC001
     FM251300 VRB03KT P6SM SCT150=

USA.gov is the U.S. government's official web portal to all federal, state and local government web resources and services.